Orneville Township, Maine
Current Conditions -  °F | °C
As of 10:53 AM on Monday 29 Dec 2014 (Local Time) from KMLT Reporting Station
Few Clouds Few Clouds  
Wind Chill: 19°   Ceiling: Unl
Heat Index: 30°   Visibility: 10mi
Dew Point: 12°   Wind: 16mph
Humidity: 47%   Direction: 300°WNW
Pressure: 29.98"   Gusts: 22mph
Location:  45.4158°N, 68.8178°W
Report Text: KMLT 291553Z AUTO 30014G19KT 10SM FEW042 M01/M11 A2998 RMK AO2 SLP163 T10111111
Loading
Personal Weather Stations






























Interactive Weather Map New forecast layout! Learn more

10-Day Weather Forecast

Advertisements
Track Severe Weather on mobile